Time;durP1;ratioP1;P1;durP2;ratioP2;P2;SDS_P1;SDS_P2;PMS_P1;PMS_P2;Temp;Humidity;BMP_temperature;BMP_pressure;BME280_temperature;BME280_humidity;BME280_pressure;Samples;Min_cycle;Max_cycle;Signal;HPM_P1;HPM_P2
2023/04/01 00:00:45;;;;;;;1.17;0.50;;;9.50;99.90;9.50;98720.00;;;;4934462;28;122103;-65
2023/04/01 00:03:11;;;;;;;0.53;0.53;;;9.60;99.90;9.40;98715.00;;;;4935956;28;93256;-66
2023/04/01 00:05:37;;;;;;;0.40;0.40;;;9.50;99.90;9.40;98711.00;;;;4938714;28;93061;-65
2023/04/01 00:08:03;;;;;;;0.30;0.30;;;9.50;99.90;9.40;98722.00;;;;4934559;28;108330;-67
2023/04/01 00:10:29;;;;;;;0.70;0.50;;;9.50;99.90;9.40;98713.00;;;;4934530;28;114643;-66
2023/04/01 00:12:54;;;;;;;1.40;0.40;;;9.50;99.90;9.40;98715.00;;;;4938446;28;93065;-65
2023/04/01 00:15:20;;;;;;;0.73;0.50;;;9.50;99.90;9.40;98717.00;;;;4935548;28;92976;-66
2023/04/01 00:17:46;;;;;;;1.03;0.40;;;10.00;99.90;9.50;98713.00;;;;4938733;28;92856;-67
2023/04/01 00:20:14;;;;;;;0.67;0.40;;;9.50;99.90;9.40;98713.00;;;;4936385;28;123484;-67
2023/04/01 00:22:40;;;;;;;0.83;0.50;;;9.50;99.90;9.40;98710.00;;;;4937369;28;94261;-66
2023/04/01 00:25:07;;;;;;;0.33;0.33;;;9.50;99.90;9.40;98715.00;;;;4937503;28;92824;-66
2023/04/01 00:27:32;;;;;;;0.40;0.40;;;9.50;99.90;9.40;98711.00;;;;4938024;28;100010;-66
2023/04/01 00:29:58;;;;;;;0.30;0.30;;;9.50;99.90;9.40;98711.00;;;;4938402;28;122261;-66
2023/04/01 00:32:25;;;;;;;0.30;0.23;;;9.50;99.90;9.40;98713.00;;;;4934760;28;121700;-67
2023/04/01 00:34:52;;;;;;;0.43;0.30;;;9.40;99.90;9.30;98711.00;;;;4934459;28;93058;-66
2023/04/01 00:37:19;;;;;;;0.60;0.40;;;9.40;99.90;9.30;98715.00;;;;4935762;28;92081;-68
2023/04/01 00:39:45;;;;;;;1.10;0.60;;;9.40;99.90;9.30;98713.00;;;;4934430;28;93893;-66
2023/04/01 00:42:12;;;;;;;0.30;0.20;;;9.40;99.90;9.30;98721.00;;;;4932870;28;93945;-66
2023/04/01 00:44:38;;;;;;;0.37;0.30;;;9.40;99.90;9.30;98716.00;;;;4934568;28;93918;-67
2023/04/01 00:47:04;;;;;;;0.50;0.40;;;9.40;99.90;9.30;98710.00;;;;4934517;28;107653;-66
2023/04/01 00:49:40;;;;;;;1.53;0.60;;;9.40;99.90;9.30;98706.00;;;;4930601;28;123814;-65
2023/04/01 00:52:13;;;;;;;0.40;0.40;;;9.30;99.90;9.30;98704.00;;;;4946367;28;113856;-65
2023/04/01 00:54:42;;;;;;;0.30;0.30;;;9.40;99.90;9.20;98703.00;;;;4946153;28;93194;-65
2023/04/01 00:57:31;;;;;;;0.83;0.70;;;9.40;99.90;9.20;98719.00;;;;4948320;28;93026;-66
2023/04/01 00:59:57;;;;;;;0.63;0.30;;;9.40;99.90;9.20;98696.00;;;;4947111;28;92998;-65
2023/04/01 01:02:24;;;;;;;0.47;0.33;;;9.30;99.90;9.20;98700.00;;;;4933235;28;92575;-65
2023/04/01 01:04:50;;;;;;;1.03;0.53;;;9.30;99.90;9.20;98702.00;;;;4931467;28;93808;-64
2023/04/01 01:07:46;;;;;;;0.63;0.40;;;9.30;99.90;9.20;98706.00;;;;4931159;28;110131;-65
2023/04/01 01:10:17;;;;;;;0.40;0.23;;;9.30;99.90;9.20;98713.00;;;;4916962;28;94484;-66
2023/04/01 01:13:10;;;;;;;0.93;0.53;;;9.40;99.90;9.20;98716.00;;;;4947918;28;93867;-65
2023/04/01 01:15:56;;;;;;;1.80;0.60;;;9.30;99.90;9.20;98715.00;;;;4949340;28;101635;-66
2023/04/01 01:18:33;;;;;;;1.07;0.67;;;9.40;99.90;9.20;98705.00;;;;4914593;28;93104;-65
2023/04/01 01:21:45;;;;;;;2.33;0.50;;;9.40;99.90;9.20;98702.00;;;;4914116;28;94057;-65
2023/04/01 01:24:30;;;;;;;0.60;0.43;;;9.40;99.90;9.30;98696.00;;;;4931888;28;92935;-66
2023/04/01 01:27:10;;;;;;;0.20;0.20;;;9.40;99.90;9.30;98703.00;;;;4946985;28;93080;-65
2023/04/01 01:30:12;;;;;;;0.27;0.27;;;9.40;99.90;9.30;98712.00;;;;4946117;28;101694;-65
2023/04/01 01:33:13;;;;;;;0.53;0.37;;;9.40;99.90;9.30;98711.00;;;;4936659;28;94465;-65
2023/04/01 01:35:54;;;;;;;3.40;0.97;;;9.40;99.90;9.30;98705.00;;;;4946063;28;93009;-65
2023/04/01 01:38:26;;;;;;;0.20;0.20;;;9.40;99.90;9.30;98711.00;;;;4915408;28;93985;-65
2023/04/01 01:40:56;;;;;;;0.20;0.20;;;9.40;99.90;9.30;98713.00;;;;4914324;28;92932;-65
2023/04/01 01:43:27;;;;;;;0.40;0.40;;;9.30;99.90;9.30;98708.00;;;;4913791;28;93365;-65
2023/04/01 01:45:58;;;;;;;2.80;0.30;;;9.40;99.90;9.30;98713.00;;;;4944434;28;112100;-65
2023/04/01 01:48:26;;;;;;;0.90;0.40;;;9.40;99.90;9.30;98705.00;;;;4915340;28;94900;-64
2023/04/01 01:50:53;;;;;;;1.90;0.77;;;9.40;99.90;9.40;98708.00;;;;4933094;28;92763;-66
2023/04/01 01:53:18;;;;;;;0.33;0.33;;;9.40;99.90;9.30;98704.00;;;;4917275;28;123526;-65
2023/04/01 01:55:47;;;;;;;1.07;0.57;;;9.40;99.90;9.40;98714.00;;;;4930997;28;119012;-64
2023/04/01 01:58:30;;;;;;;0.60;0.60;;;9.40;99.90;9.30;98712.00;;;;4930877;28;92977;-65
2023/04/01 02:01:03;;;;;;;0.67;0.30;;;9.40;99.90;9.30;98711.00;;;;4931858;28;93194;-63
2023/04/01 02:03:33;;;;;;;0.40;0.33;;;9.40;99.90;9.30;98711.00;;;;4943584;28;112856;-63
2023/04/01 02:06:01;;;;;;;1.27;0.53;;;9.40;99.90;9.30;98705.00;;;;4933547;28;115427;-63
2023/04/01 02:08:55;;;;;;;3.20;0.57;;;9.40;99.90;9.30;98713.00;;;;4932554;28;92986;-63
2023/04/01 02:11:43;;;;;;;0.20;0.20;;;9.40;99.90;9.30;98712.00;;;;4933130;28;100406;-65
2023/04/01 02:14:13;;;;;;;0.33;0.33;;;9.40;99.90;9.30;98719.00;;;;4877218;28;95567;-64
2023/04/01 02:16:55;;;;;;;0.37;0.33;;;9.40;99.90;9.30;98712.00;;;;4912180;28;93966;-64
2023/04/01 02:19:31;;;;;;;0.93;0.50;;;9.40;99.90;9.30;98707.00;;;;4911395;28;99087;-64
2023/04/01 02:22:03;;;;;;;0.60;0.30;;;9.40;99.90;9.30;98705.00;;;;4930335;28;92210;-65
2023/04/01 02:24:31;;;;;;;2.67;0.53;;;9.40;99.90;9.30;98705.00;;;;4924491;28;93496;-64
2023/04/01 02:26:57;;;;;;;2.50;0.50;;;9.40;99.90;9.40;98708.00;;;;4896248;28;113992;-64
2023/04/01 02:29:25;;;;;;;1.77;0.90;;;9.40;99.90;9.40;98715.00;;;;4922212;28;108925;-65
2023/04/01 02:31:53;;;;;;;0.20;0.20;;;9.40;99.90;9.30;98708.00;;;;4915559;28;92851;-65
2023/04/01 02:34:20;;;;;;;0.10;0.10;;;9.40;99.90;9.30;98712.00;;;;4913735;28;95130;-66
2023/04/01 02:36:56;;;;;;;0.20;0.20;;;9.40;99.90;9.30;98707.00;;;;4912946;28;111955;-64
2023/04/01 02:39:22;;;;;;;0.20;0.20;;;9.40;99.90;9.30;98716.00;;;;4895373;28;108657;-64
2023/04/01 02:41:48;;;;;;;5.70;1.00;;;9.40;99.90;9.30;98721.00;;;;4913558;28;92980;-65
2023/04/01 02:44:15;;;;;;;2.10;0.50;;;9.40;99.90;9.30;98723.00;;;;4914731;28;122630;-65
2023/04/01 02:46:41;;;;;;;1.23;0.60;;;9.40;99.90;9.30;98733.00;;;;4914097;28;93416;-64
2023/04/01 02:49:07;;;;;;;0.57;0.47;;;9.40;99.90;9.30;98731.00;;;;4913082;28;92885;-64
2023/04/01 02:51:34;;;;;;;2.63;0.57;;;9.30;99.90;9.30;98735.00;;;;4912334;28;109555;-64
2023/04/01 02:54:00;;;;;;;1.03;0.77;;;9.40;99.90;9.30;98735.00;;;;4913763;28;95012;-63
2023/04/01 02:56:25;;;;;;;0.63;0.33;;;9.30;99.90;9.30;98730.00;;;;4912276;28;123902;-66
2023/04/01 02:58:52;;;;;;;1.93;0.80;;;9.40;99.90;9.20;98739.00;;;;4907371;28;92961;-64
2023/04/01 03:01:18;;;;;;;0.43;0.30;;;9.30;99.90;9.20;98733.00;;;;4911634;28;93655;-65
2023/04/01 03:03:43;;;;;;;1.23;0.93;;;9.30;99.90;9.20;98742.00;;;;4912452;28;123959;-65
2023/04/01 03:06:12;;;;;;;0.43;0.43;;;9.40;99.90;9.20;98738.00;;;;4913845;28;93111;-65
2023/04/01 03:08:38;;;;;;;0.67;0.57;;;9.30;99.90;9.20;98740.00;;;;4911851;28;92943;-63
2023/04/01 03:11:05;;;;;;;1.00;0.70;;;9.30;99.90;9.20;98749.00;;;;4923571;28;109072;-64
2023/04/01 03:13:30;;;;;;;1.07;0.47;;;9.30;99.90;9.20;98749.00;;;;4930791;28;94022;-64
2023/04/01 03:15:56;;;;;;;0.40;0.30;;;9.30;99.90;9.20;98743.00;;;;4929688;28;122846;-64
2023/04/01 03:18:22;;;;;;;1.60;0.77;;;9.30;99.90;9.20;98739.00;;;;4929376;28;101372;-64
2023/04/01 03:20:47;;;;;;;1.30;0.83;;;9.30;99.90;9.20;98736.00;;;;4928823;28;108561;-64
2023/04/01 03:23:13;;;;;;;0.87;0.63;;;9.30;99.90;9.20;98747.00;;;;4929657;28;121998;-64
2023/04/01 03:25:39;;;;;;;1.30;0.80;;;9.30;99.90;9.20;98751.00;;;;4928243;28;120806;-66
2023/04/01 03:28:04;;;;;;;0.90;0.70;;;9.30;99.90;9.20;98740.00;;;;4930422;28;111107;-66
2023/04/01 03:30:31;;;;;;;0.97;0.77;;;9.30;99.90;9.20;98759.00;;;;4930369;28;108460;-65
2023/04/01 03:32:58;;;;;;;1.80;0.37;;;9.30;99.90;9.20;98749.00;;;;4928480;28;94071;-65
2023/04/01 03:35:23;;;;;;;3.50;0.80;;;9.30;99.90;9.20;98747.00;;;;4931705;28;93579;-65
2023/04/01 03:37:52;;;;;;;0.63;0.50;;;9.20;99.90;9.20;98756.00;;;;4929838;28;110593;-65
2023/04/01 03:40:18;;;;;;;1.03;0.80;;;9.30;99.90;9.20;98759.00;;;;4930848;28;93503;-66
2023/04/01 03:42:44;;;;;;;0.53;0.47;;;9.20;99.90;9.20;98751.00;;;;4933396;28;94925;-65
2023/04/01 03:45:11;;;;;;;0.30;0.30;;;9.30;99.90;9.20;98753.00;;;;4931375;28;122780;-66
2023/04/01 03:47:38;;;;;;;1.03;0.50;;;9.20;99.90;9.20;98755.00;;;;4930096;28;92967;-65
2023/04/01 03:50:05;;;;;;;1.23;0.50;;;9.30;99.90;9.20;98761.00;;;;4928693;28;103394;-65
2023/04/01 03:52:31;;;;;;;0.80;0.60;;;9.30;99.90;9.20;98765.00;;;;4930511;28;115377;-66
2023/04/01 03:54:57;;;;;;;3.30;0.40;;;9.20;99.90;9.20;98760.00;;;;4928608;28;93143;-66
2023/04/01 03:57:23;;;;;;;0.40;0.40;;;9.20;99.90;9.20;98764.00;;;;4933022;28;93400;-66
2023/04/01 03:59:48;;;;;;;0.23;0.20;;;9.30;99.90;9.20;98761.00;;;;4931091;28;111239;-64
2023/04/01 04:02:14;;;;;;;0.43;0.40;;;9.20;99.90;9.20;98771.00;;;;4930448;28;122883;-66
2023/04/01 04:04:40;;;;;;;0.20;0.20;;;9.20;99.90;9.20;98769.00;;;;4930285;28;93491;-66
2023/04/01 04:07:06;;;;;;;0.80;0.53;;;9.20;99.90;9.20;98765.00;;;;4931555;28;93927;-65
2023/04/01 04:09:33;;;;;;;0.40;0.40;;;9.20;99.90;9.20;98775.00;;;;4932078;28;93412;-65
2023/04/01 04:11:59;;;;;;;1.43;0.63;;;9.30;99.90;9.20;98766.00;;;;4933519;28;93204;-65
2023/04/01 04:14:25;;;;;;;0.40;0.40;;;9.30;99.90;9.20;98762.00;;;;4933628;28;92886;-66
2023/04/01 04:16:50;;;;;;;7.37;0.47;;;9.20;99.90;9.20;98763.00;;;;4934180;28;94840;-67
2023/04/01 04:19:16;;;;;;;0.53;0.47;;;9.20;99.90;9.20;98766.00;;;;4931671;28;109947;-66
2023/04/01 04:21:42;;;;;;;0.30;0.30;;;9.20;99.90;9.20;98764.00;;;;4931534;28;121327;-65
2023/04/01 04:24:08;;;;;;;1.40;0.57;;;9.20;99.90;9.10;98767.00;;;;4933393;28;121504;-65
2023/04/01 04:26:34;;;;;;;1.50;0.47;;;9.20;99.90;9.10;98767.00;;;;4931271;28;93353;-66
2023/04/01 04:29:01;;;;;;;0.73;0.50;;;9.20;99.90;9.10;98770.00;;;;4934860;28;97881;-67
2023/04/01 04:31:27;;;;;;;4.70;0.87;;;9.20;99.90;9.10;98772.00;;;;4930917;28;111419;-66
2023/04/01 04:33:53;;;;;;;0.47;0.43;;;9.20;99.90;9.10;98766.00;;;;4934350;28;93845;-64
2023/04/01 04:36:20;;;;;;;2.77;0.53;;;9.10;99.90;9.10;98782.00;;;;4933388;28;106559;-66
2023/04/01 04:38:46;;;;;;;1.80;0.47;;;9.20;99.90;9.10;98779.00;;;;4933424;28;93036;-65
2023/04/01 04:41:14;;;;;;;1.10;0.47;;;9.10;99.90;9.10;98783.00;;;;4934791;28;103301;-65
2023/04/01 04:43:41;;;;;;;1.57;0.60;;;9.20;99.90;9.10;98781.00;;;;4928960;28;93452;-64
2023/04/01 04:46:09;;;;;;;0.60;0.40;;;9.20;99.90;9.10;98780.00;;;;4933445;28;102649;-65
2023/04/01 04:48:35;;;;;;;1.30;0.60;;;9.20;99.90;9.20;98784.00;;;;4936299;28;92168;-65
2023/04/01 04:51:02;;;;;;;0.60;0.40;;;9.20;99.90;9.20;98795.00;;;;4932626;28;94198;-66
2023/04/01 04:53:27;;;;;;;7.80;0.80;;;9.20;99.90;9.20;98793.00;;;;4931340;28;93098;-66
2023/04/01 04:55:53;;;;;;;0.40;0.40;;;9.30;99.90;9.20;98788.00;;;;4932620;28;110607;-67
2023/04/01 04:58:19;;;;;;;2.53;1.10;;;9.30;99.90;9.20;98794.00;;;;4932734;28;107260;-66
2023/04/01 05:00:46;;;;;;;0.67;0.60;;;9.30;99.90;9.20;98797.00;;;;4929476;28;122446;-67
2023/04/01 05:03:12;;;;;;;0.60;0.40;;;9.30;99.90;9.20;98800.00;;;;4933103;28;93081;-65
2023/04/01 05:05:38;;;;;;;1.23;0.53;;;9.30;99.90;9.20;98788.00;;;;4933040;28;92911;-67
2023/04/01 05:08:04;;;;;;;3.07;0.70;;;9.30;99.90;9.20;98793.00;;;;4930674;28;92878;-65
2023/04/01 05:10:31;;;;;;;0.50;0.47;;;9.30;99.90;9.20;98796.00;;;;4929970;28;93121;-66
2023/04/01 05:12:57;;;;;;;6.97;0.73;;;9.30;99.90;9.20;98804.00;;;;4933662;28;92848;-66
2023/04/01 05:15:23;;;;;;;0.30;0.30;;;9.30;99.90;9.20;98802.00;;;;4935294;28;92792;-66
2023/04/01 05:17:49;;;;;;;0.63;0.50;;;9.30;99.90;9.20;98811.00;;;;4932431;28;93339;-65
2023/04/01 05:20:16;;;;;;;2.03;0.53;;;9.30;99.90;9.30;98807.00;;;;4932986;28;95071;-66
2023/04/01 05:22:42;;;;;;;1.10;0.73;;;9.30;99.90;9.30;98811.00;;;;4933781;28;94663;-64
2023/04/01 05:25:08;;;;;;;1.40;0.97;;;9.40;99.90;9.30;98815.00;;;;4932297;28;102539;-64
2023/04/01 05:27:33;;;;;;;0.60;0.50;;;9.40;99.90;9.40;98812.00;;;;4932514;28;99904;-64
2023/04/01 05:29:59;;;;;;;1.70;0.77;;;9.40;99.90;9.40;98811.00;;;;4932391;28;122493;-64
2023/04/01 05:32:25;;;;;;;1.27;0.90;;;9.40;99.90;9.50;98820.00;;;;4930688;28;93675;-64
2023/04/01 05:34:51;;;;;;;1.47;0.53;;;9.50;99.90;9.50;98816.00;;;;4927842;28;109900;-66
2023/04/01 05:37:17;;;;;;;1.80;0.83;;;9.60;99.90;9.60;98816.00;;;;4929278;28;94232;-65
2023/04/01 05:39:43;;;;;;;2.90;0.63;;;9.60;99.90;9.60;98816.00;;;;4929369;28;93864;-64
2023/04/01 05:42:08;;;;;;;0.50;0.50;;;9.60;99.90;9.60;98827.00;;;;4928025;28;117167;-64
2023/04/01 05:44:35;;;;;;;5.50;1.00;;;9.70;99.90;9.70;98816.00;;;;4928981;28;110842;-65
2023/04/01 05:47:03;;;;;;;7.30;0.97;;;9.70;99.90;9.70;98828.00;;;;4931792;28;92897;-65
2023/04/01 05:49:28;;;;;;;1.63;0.93;;;9.80;99.90;9.70;98826.00;;;;4929226;28;93372;-66
2023/04/01 05:51:54;;;;;;;0.67;0.63;;;9.70;99.90;9.80;98827.00;;;;4929525;28;122119;-65
2023/04/01 05:54:20;;;;;;;0.77;0.60;;;9.80;99.90;9.80;98827.00;;;;4930029;28;104675;-66
2023/04/01 05:56:46;;;;;;;1.33;0.60;;;9.80;99.90;9.80;98829.00;;;;4928707;28;108475;-66
2023/04/01 05:59:12;;;;;;;0.77;0.37;;;9.90;99.90;9.90;98831.00;;;;4909754;28;122157;-66
2023/04/01 06:01:39;;;;;;;1.20;0.67;;;9.90;99.90;9.90;98834.00;;;;4930211;28;93681;-66
2023/04/01 06:04:05;;;;;;;1.17;1.00;;;10.40;99.90;9.90;98839.00;;;;4926610;28;98567;-67
2023/04/01 06:06:32;;;;;;;1.47;0.67;;;10.00;99.90;10.00;98840.00;;;;4929496;28;93018;-66
2023/04/01 06:09:29;;;;;;;3.37;0.77;;;10.00;99.90;10.00;98848.00;;;;4930109;28;94453;-66
2023/04/01 06:12:07;;;;;;;0.43;0.43;;;10.00;99.90;10.00;98845.00;;;;4913076;28;94015;-66
2023/04/01 06:14:39;;;;;;;0.83;0.30;;;10.10;99.90;10.00;98847.00;;;;4930479;28;93259;-68
2023/04/01 06:17:43;;;;;;;2.63;0.70;;;10.00;99.90;9.90;98847.00;;;;4940973;28;93207;-66
2023/04/01 06:20:16;;;;;;;0.30;0.30;;;10.00;99.90;10.00;98849.00;;;;4929101;28;93267;-65
2023/04/01 06:23:29;;;;;;;3.10;0.80;;;10.00;99.90;10.00;98852.00;;;;4928282;28;102494;-68
2023/04/01 06:26:20;;;;;;;0.43;0.43;;;10.10;99.90;10.10;98853.00;;;;4912915;28;93622;-67
2023/04/01 06:29:19;;;;;;;1.60;0.40;;;10.20;99.90;10.30;98863.00;;;;4929903;28;93367;-65
2023/04/01 06:32:36;;;;;;;0.83;0.63;;;10.30;99.90;10.30;98871.00;;;;4942805;28;109828;-66
2023/04/01 06:35:19;;;;;;;3.37;0.90;;;10.40;99.90;10.40;98861.00;;;;4888947;28;93196;-64
2023/04/01 06:38:18;;;;;;;0.23;0.23;;;10.50;99.90;10.50;98866.00;;;;4928938;28;93931;-66
2023/04/01 06:41:01;;;;;;;0.63;0.60;;;10.50;99.90;10.60;98865.00;;;;4942178;28;92906;-64
2023/04/01 06:43:58;;;;;;;2.20;0.57;;;10.60;99.90;10.70;98872.00;;;;4929039;28;93084;-66
2023/04/01 06:47:04;;;;;;;7.43;1.20;;;10.70;99.90;10.70;98874.00;;;;4910234;28;114980;-66
2023/04/01 06:50:11;;;;;;;0.40;0.40;;;10.70;99.90;10.70;98873.00;;;;4942093;28;94075;-66
2023/04/01 06:52:59;;;;;;;0.20;0.20;;;10.80;99.90;10.80;98878.00;;;;4929482;28;92747;-64
2023/04/01 06:55:42;;;;;;;0.23;0.23;;;10.80;99.90;11.00;98869.00;;;;4929002;28;94158;-66
2023/04/01 06:58:23;;;;;;;1.27;1.03;;;10.90;99.90;11.00;98878.00;;;;4912122;28;92233;-65
2023/04/01 07:01:35;;;;;;;0.60;0.40;;;11.10;99.90;11.10;98887.00;;;;4928383;28;103972;-65
2023/04/01 07:04:11;;;;;;;2.43;0.53;;;11.10;99.90;11.10;98884.00;;;;4896468;28;93075;-65
2023/04/01 07:06:55;;;;;;;0.60;0.40;;;11.10;99.90;11.00;98895.00;;;;4925636;28;101954;-65
2023/04/01 07:09:28;;;;;;;7.40;0.57;;;11.10;99.90;11.00;98884.00;;;;4927646;28;110645;-66
2023/04/01 07:12:01;;;;;;;1.30;0.40;;;11.10;99.90;10.90;98891.00;;;;4927463;28;101831;-64
2023/04/01 07:14:37;;;;;;;0.97;0.80;;;11.00;99.90;10.90;98900.00;;;;4908454;28;100099;-65
2023/04/01 07:17:19;;;;;;;1.23;0.60;;;11.00;99.90;10.90;98894.00;;;;4926592;28;113638;-65
2023/04/01 07:19:51;;;;;;;0.40;0.23;;;11.00;99.90;10.90;98894.00;;;;4942533;28;108793;-65
2023/04/01 07:22:35;;;;;;;2.37;0.73;;;11.00;99.90;10.90;98901.00;;;;4924983;28;93020;-66
2023/04/01 07:25:12;;;;;;;0.30;0.20;;;11.00;99.90;10.90;98889.00;;;;4911545;28;92638;-64
2023/04/01 07:27:37;;;;;;;0.60;0.60;;;11.00;99.90;10.90;98895.00;;;;4939882;28;93390;-64
2023/04/01 07:30:18;;;;;;;0.47;0.40;;;11.00;99.90;10.90;98903.00;;;;4923734;28;121354;-65
2023/04/01 07:33:16;;;;;;;1.33;0.60;;;11.00;99.90;10.90;98900.00;;;;4924983;28;102496;-66
2023/04/01 07:35:46;;;;;;;0.70;0.27;;;11.00;99.90;11.00;98902.00;;;;4941673;28;93321;-67
2023/04/01 07:38:27;;;;;;;0.33;0.33;;;11.00;99.90;11.00;98896.00;;;;4909546;28;93959;-63
2023/04/01 07:41:45;;;;;;;2.80;0.63;;;11.10;99.90;10.90;98911.00;;;;4926150;28;93149;-66
2023/04/01 07:45:26;;;;;;;2.00;1.07;;;11.00;99.90;10.80;98917.00;;;;4941739;28;102837;-66
2023/04/01 07:48:10;;;;;;;0.30;0.30;;;10.90;99.90;10.70;98909.00;;;;4907243;28;93409;-66
2023/04/01 07:50:55;;;;;;;3.27;0.77;;;10.90;99.90;10.70;98909.00;;;;4910939;28;93165;-66
2023/04/01 07:53:45;;;;;;;0.83;0.77;;;10.80;99.90;10.60;98918.00;;;;4930006;28;93796;-65
2023/04/01 07:56:23;;;;;;;0.80;0.40;;;10.70;99.90;10.60;98918.00;;;;4931016;28;94119;-64
2023/04/01 07:59:16;;;;;;;1.77;0.90;;;10.70;99.90;10.60;98926.00;;;;4912469;28;102220;-65
2023/04/01 08:01:57;;;;;;;1.33;0.80;;;10.70;99.90;10.60;98920.00;;;;4927534;28;114022;-64
2023/04/01 08:04:51;;;;;;;1.50;1.03;;;10.60;99.90;10.60;98923.00;;;;4928072;28;107489;-65
2023/04/01 08:07:24;;;;;;;1.10;0.70;;;10.70;99.90;10.70;98930.00;;;;4912140;28;94248;-65
2023/04/01 08:10:01;;;;;;;0.93;0.50;;;10.70;99.90;10.80;98928.00;;;;4924029;28;97431;-65
2023/04/01 08:12:36;;;;;;;1.50;0.57;;;10.80;99.90;10.80;98926.00;;;;4913506;28;93312;-66
2023/04/01 08:15:21;;;;;;;1.23;0.63;;;10.80;99.90;10.90;98934.00;;;;4926446;28;107039;-66
2023/04/01 08:18:17;;;;;;;0.63;0.63;;;10.90;99.90;10.90;98935.00;;;;4930080;28;92914;-65
2023/04/01 08:20:55;;;;;;;0.97;0.83;;;11.00;99.90;10.90;98938.00;;;;4930098;28;92501;-66
2023/04/01 08:23:40;;;;;;;1.20;0.67;;;11.00;99.90;10.90;98944.00;;;;4927258;28;105666;-65
2023/04/01 08:26:44;;;;;;;0.60;0.60;;;11.00;99.90;11.00;98929.00;;;;4910433;28;93176;-65
2023/04/01 08:29:20;;;;;;;0.77;0.50;;;11.00;99.90;11.00;98936.00;;;;4911883;28;94054;-66
2023/04/01 08:32:11;;;;;;;1.93;0.90;;;11.10;99.90;11.10;98942.00;;;;4928438;28;92872;-65
2023/04/01 08:34:40;;;;;;;0.63;0.40;;;11.10;99.90;11.10;98935.00;;;;4938107;28;116854;-65
2023/04/01 08:37:17;;;;;;;0.20;0.20;;;11.20;99.90;11.20;98934.00;;;;4929155;28;93168;-64
2023/04/01 08:39:51;;;;;;;0.73;0.60;;;11.20;99.90;11.30;98942.00;;;;4912343;28;92664;-65
2023/04/01 08:42:55;;;;;;;2.10;0.93;;;11.30;99.90;11.40;98938.00;;;;4910942;28;101978;-66
2023/04/01 08:45:49;;;;;;;0.30;0.30;;;11.40;99.90;11.50;98937.00;;;;4903301;28;113966;-68
2023/04/01 08:48:51;;;;;;;0.40;0.40;;;11.50;99.90;11.50;98937.00;;;;4910990;28;93131;-65
2023/04/01 08:51:53;;;;;;;2.00;0.40;;;11.60;99.90;11.60;98942.00;;;;4908555;28;102540;-64
2023/04/01 08:55:02;;;;;;;0.63;0.53;;;11.60;99.90;11.60;98936.00;;;;4927080;28;93242;-65
2023/04/01 08:57:51;;;;;;;0.33;0.33;;;11.70;99.90;11.60;98946.00;;;;4941158;28;94518;-65
2023/04/01 09:00:31;;;;;;;1.83;0.70;;;11.60;99.90;11.50;98929.00;;;;4911745;28;93818;-67
2023/04/01 09:03:10;;;;;;;1.33;0.60;;;11.60;99.90;11.50;98947.00;;;;4914322;28;93525;-65
2023/04/01 09:06:06;;;;;;;1.27;1.17;;;11.50;99.90;11.40;98939.00;;;;4913261;28;93263;-67
2023/04/01 09:09:18;;;;;;;0.30;0.30;;;11.50;99.90;11.40;98947.00;;;;4940823;28;116057;-66
2023/04/01 09:12:26;;;;;;;4.00;0.47;;;11.40;99.90;11.40;98935.00;;;;4926955;28;93323;-66
2023/04/01 09:15:25;;;;;;;0.13;0.13;;;11.50;99.90;11.50;98941.00;;;;4928117;28;92860;-66
2023/04/01 09:18:23;;;;;;;0.83;0.57;;;11.50;99.90;11.60;98944.00;;;;4942526;28;99646;-65
2023/04/01 09:21:39;;;;;;;0.83;0.70;;;11.60;99.90;11.70;98932.00;;;;4926023;28;115291;-67
2023/04/01 09:24:57;;;;;;;3.40;0.60;;;11.70;99.90;11.80;98946.00;;;;4928902;28;92837;-66
2023/04/01 09:27:44;;;;;;;0.40;0.40;;;11.80;99.90;11.90;98940.00;;;;4926652;28;94081;-65
2023/04/01 09:30:44;;;;;;;0.27;0.27;;;11.90;99.90;12.10;98947.00;;;;4912089;28;92979;-64
2023/04/01 09:33:59;;;;;;;2.60;0.47;;;12.00;99.90;12.20;98946.00;;;;4940793;28;93295;-64
2023/04/01 09:37:00;;;;;;;0.83;0.53;;;12.20;99.90;12.30;98952.00;;;;4925668;28;92803;-65
2023/04/01 09:40:29;;;;;;;1.30;1.10;;;12.30;99.90;12.40;98952.00;;;;4929874;28;92997;-66
2023/04/01 09:43:05;;;;;;;0.37;0.33;;;12.40;99.90;12.50;98952.00;;;;4886102;28;93145;-65
2023/04/01 09:45:49;;;;;;;0.60;0.50;;;12.50;99.90;12.50;98956.00;;;;4936229;28;109237;-65
2023/04/01 09:48:42;;;;;;;0.60;0.43;;;12.50;99.90;12.50;98954.00;;;;4918133;28;92274;-65
2023/04/01 09:51:36;;;;;;;0.83;0.40;;;12.50;99.90;12.60;98960.00;;;;4941740;28;92909;-67
2023/04/01 09:54:28;;;;;;;0.67;0.67;;;12.60;99.90;12.50;98949.00;;;;4926918;28;93464;-67
2023/04/01 09:57:40;;;;;;;0.40;0.40;;;12.60;99.90;12.50;98948.00;;;;4927947;28;95338;-65
2023/04/01 10:01:01;;;;;;;2.13;0.40;;;12.60;99.90;12.40;98962.00;;;;4926827;28;94259;-65
2023/04/01 10:04:29;;;;;;;1.40;0.60;;;12.50;99.90;12.40;98957.00;;;;4930067;28;93188;-66
2023/04/01 10:07:38;;;;;;;0.57;0.40;;;12.50;99.90;12.30;98966.00;;;;4928980;28;93138;-65
2023/04/01 10:10:32;;;;;;;2.47;0.57;;;12.40;99.90;12.30;98963.00;;;;4928464;28;105996;-65
2023/04/01 10:13:53;;;;;;;0.40;0.37;;;12.40;99.90;12.30;98963.00;;;;4912890;28;93025;-65
2023/04/01 10:17:08;;;;;;;3.03;0.50;;;12.30;99.90;12.30;98961.00;;;;4927794;28;93001;-66
2023/04/01 10:20:12;;;;;;;2.07;0.40;;;12.40;99.90;12.30;98967.00;;;;4927468;28;92315;-65
2023/04/01 10:23:15;;;;;;;0.40;0.40;;;12.40;99.90;12.30;98967.00;;;;4904119;28;108912;-65
2023/04/01 10:26:26;;;;;;;0.33;0.33;;;12.40;99.90;12.40;98979.00;;;;4926526;28;93113;-65
2023/04/01 10:29:12;;;;;;;0.40;0.27;;;12.40;99.90;12.40;98970.00;;;;4941591;28;94090;-65
2023/04/01 10:32:10;;;;;;;0.90;0.50;;;12.50;99.90;12.50;98975.00;;;;4927682;28;92785;-66
2023/04/01 10:34:59;;;;;;;1.30;0.93;;;12.50;99.90;12.60;98969.00;;;;4908665;28;106673;-65
2023/04/01 10:37:57;;;;;;;0.47;0.47;;;12.50;99.90;12.70;98974.00;;;;4925268;28;115227;-65
2023/04/01 10:41:22;;;;;;;0.40;0.33;;;12.60;99.90;12.70;98972.00;;;;4926282;28;92984;-66
2023/04/01 10:44:28;;;;;;;0.67;0.47;;;12.70;99.90;12.80;98974.00;;;;4912239;28;93142;-66
2023/04/01 10:47:14;;;;;;;2.83;1.23;;;12.80;99.90;12.70;98969.00;;;;4942583;28;116012;-65
2023/04/01 10:50:31;;;;;;;1.03;0.40;;;12.80;99.90;12.70;98970.00;;;;4943327;28;92330;-65
2023/04/01 10:53:30;;;;;;;0.20;0.20;;;12.80;99.90;12.60;98975.00;;;;4925179;28;103037;-65
2023/04/01 10:56:20;;;;;;;1.03;0.50;;;12.70;99.90;12.70;98985.00;;;;4911610;28;93002;-65
2023/04/01 10:59:38;;;;;;;0.30;0.27;;;12.70;99.90;12.80;98970.00;;;;4925902;28;94816;-66
2023/04/01 11:03:04;;;;;;;0.30;0.27;;;12.80;99.90;12.80;98972.00;;;;4926596;28;93441;-66
2023/04/01 11:05:49;;;;;;;0.43;0.37;;;12.80;99.90;12.90;98972.00;;;;4926557;28;93156;-66
2023/04/01 11:08:45;;;;;;;0.37;0.37;;;12.90;99.90;13.00;98968.00;;;;4941595;28;93135;-65
2023/04/01 11:11:55;;;;;;;0.50;0.50;;;13.00;99.90;13.10;98981.00;;;;4924047;28;93743;-65
2023/04/01 11:15:17;;;;;;;1.60;0.30;;;13.10;99.90;13.30;98982.00;;;;4924315;28;93206;-65
2023/04/01 11:18:07;;;;;;;0.77;0.50;;;13.30;99.90;13.40;98984.00;;;;4927090;28;93065;-67
2023/04/01 11:20:41;;;;;;;0.93;0.47;;;13.40;99.90;13.40;98988.00;;;;4939529;28;94697;-65
2023/04/01 11:23:28;;;;;;;0.10;0.10;;;13.50;99.90;13.50;98984.00;;;;4925483;28;107607;-65
2023/04/01 11:26:35;;;;;;;0.20;0.10;;;13.50;99.90;13.50;98978.00;;;;4918297;28;115890;-66
2023/04/01 11:29:22;;;;;;;0.30;0.23;;;13.50;99.90;13.50;98984.00;;;;4918910;28;93939;-65
2023/04/01 11:31:58;;;;;;;0.20;0.20;;;13.60;99.90;13.50;98981.00;;;;4907751;28;102439;-65
2023/04/01 11:34:48;;;;;;;0.30;0.20;;;13.60;99.90;13.50;98988.00;;;;4938969;28;93352;-66
2023/04/01 11:37:51;;;;;;;0.00;0.00;;;13.60;99.90;13.60;98990.00;;;;4928906;28;93466;-65
2023/04/01 11:40:49;;;;;;;0.60;0.40;;;13.60;99.90;13.60;98997.00;;;;4925239;28;92926;-65
2023/04/01 11:44:02;;;;;;;0.20;0.20;;;13.60;99.90;13.70;98997.00;;;;4929440;28;93081;-65
2023/04/01 11:46:46;;;;;;;0.30;0.20;;;13.70;99.90;13.70;98995.00;;;;4901082;28;93690;-66
2023/04/01 11:49:43;;;;;;;1.35;0.28;;;13.70;99.90;13.70;99009.00;;;;4926579;28;92735;-65
2023/04/01 11:52:38;;;;;;;0.08;0.08;;;13.70;99.90;13.70;99003.00;;;;4926628;28;92933;-64
2023/04/01 11:55:33;;;;;;;1.87;0.27;;;13.70;99.90;13.70;99006.00;;;;4925275;28;93506;-65
2023/04/01 11:58:36;;;;;;;2.22;0.30;;;13.70;99.90;13.60;99010.00;;;;4928070;28;94521;-65